createdAt,value
2023-03-06T00:00:54.244Z,17.92
2023-03-06T00:03:22.295Z,18.38
2023-03-06T00:05:49.394Z,16.02
2023-03-06T00:08:16.636Z,15.68
2023-03-06T00:10:43.901Z,14.65
2023-03-06T00:13:13.316Z,16.15
2023-03-06T00:15:40.636Z,14.90
2023-03-06T00:18:08.088Z,13.68
2023-03-06T00:20:35.827Z,14.30
2023-03-06T00:23:02.945Z,13.82
2023-03-06T00:25:29.749Z,14.93
2023-03-06T00:27:56.813Z,15.85
2023-03-06T00:30:25.325Z,15.35
2023-03-06T00:32:53.698Z,15.82
2023-03-06T00:35:20.759Z,16.50
2023-03-06T00:37:48.061Z,16.92
2023-03-06T00:40:19.971Z,18.17
2023-03-06T00:42:47.665Z,18.00
2023-03-06T00:45:15.046Z,18.80
2023-03-06T00:47:42.496Z,19.58
2023-03-06T00:50:10.510Z,19.55
2023-03-06T00:52:37.717Z,20.13
2023-03-06T00:55:05.784Z,19.88
2023-03-06T00:57:32.646Z,18.58
2023-03-06T00:59:59.567Z,19.98
2023-03-06T01:02:26.523Z,20.05
2023-03-06T01:04:53.446Z,19.73
2023-03-06T01:07:20.367Z,20.35
2023-03-06T01:09:47.172Z,19.63
2023-03-06T01:12:14.017Z,19.70
2023-03-06T01:14:40.849Z,19.02
2023-03-06T01:17:07.721Z,19.95
2023-03-06T01:19:34.542Z,19.48
2023-03-06T01:22:01.697Z,19.98
2023-03-06T01:24:28.635Z,18.98
2023-03-06T01:26:55.511Z,18.23
2023-03-06T01:29:22.402Z,17.30
2023-03-06T01:31:49.266Z,16.27
2023-03-06T01:34:16.105Z,17.80
2023-03-06T01:36:43.062Z,16.45
2023-03-06T01:39:10.300Z,16.67
2023-03-06T01:41:37.145Z,16.35
2023-03-06T01:44:04.202Z,17.63
2023-03-06T01:46:42.329Z,16.98
2023-03-06T01:49:12.424Z,16.15
2023-03-06T01:51:44.487Z,16.73
2023-03-06T01:54:34.336Z,16.63
2023-03-06T01:57:07.067Z,17.83
2023-03-06T01:59:37.182Z,18.67
2023-03-06T02:02:06.278Z,18.48
2023-03-06T02:04:33.985Z,18.75
2023-03-06T02:07:05.268Z,19.08
2023-03-06T02:09:34.707Z,18.08
2023-03-06T02:12:03.489Z,17.88
2023-03-06T02:14:30.804Z,19.67
2023-03-06T02:16:57.893Z,20.10
2023-03-06T02:19:38.711Z,19.83
2023-03-06T02:22:05.773Z,21.40
2023-03-06T02:24:40.671Z,21.88
2023-03-06T02:27:09.701Z,22.35
2023-03-06T02:29:36.736Z,22.27
2023-03-06T02:32:04.665Z,22.30
2023-03-06T02:34:37.662Z,22.95
2023-03-06T02:37:11.325Z,23.67
2023-03-06T02:39:42.868Z,22.92
2023-03-06T02:42:10.007Z,23.80
2023-03-06T02:44:37.666Z,24.95
2023-03-06T02:47:04.616Z,25.40
2023-03-06T02:49:31.413Z,23.67
2023-03-06T02:51:58.241Z,24.83
2023-03-06T02:54:25.008Z,25.25
2023-03-06T02:56:51.887Z,25.98
2023-03-06T02:59:18.745Z,25.98
2023-03-06T03:01:47.721Z,25.65
2023-03-06T03:04:14.681Z,25.77
2023-03-06T03:06:41.570Z,26.83
2023-03-06T03:09:08.443Z,27.25
2023-03-06T03:11:35.390Z,26.88
2023-03-06T03:14:02.223Z,26.77
2023-03-06T03:16:29.029Z,26.42
2023-03-06T03:18:55.838Z,25.75
2023-03-06T03:21:22.720Z,28.60
2023-03-06T03:23:49.555Z,29.27
2023-03-06T03:26:20.725Z,25.65
2023-03-06T03:28:47.904Z,27.48
2023-03-06T03:31:14.767Z,26.88
2023-03-06T03:33:41.747Z,26.95
2023-03-06T03:36:09.450Z,26.60
2023-03-06T03:38:37.526Z,26.02
2023-03-06T03:41:05.000Z,26.20
2023-03-06T03:43:32.556Z,27.33
2023-03-06T03:45:59.406Z,27.40
2023-03-06T03:48:26.292Z,28.08
2023-03-06T03:50:53.153Z,27.85
2023-03-06T03:53:20.143Z,29.65
2023-03-06T03:55:48.630Z,29.23
2023-03-06T03:58:15.797Z,27.25
2023-03-06T04:00:42.666Z,27.20
2023-03-06T04:03:09.500Z,26.83
2023-03-06T04:05:36.916Z,26.70
2023-03-06T04:08:04.353Z,28.33
2023-03-06T04:10:31.294Z,28.48
2023-03-06T04:12:58.280Z,29.25
2023-03-06T04:15:25.221Z,29.50
2023-03-06T04:17:52.207Z,30.77
2023-03-06T04:20:20.036Z,30.08
2023-03-06T04:22:46.834Z,30.23
2023-03-06T04:25:13.881Z,29.42
2023-03-06T04:27:41.058Z,29.75
2023-03-06T04:30:08.545Z,28.05
2023-03-06T04:32:35.459Z,28.08
2023-03-06T04:35:02.617Z,28.20
2023-03-06T04:37:29.748Z,31.15
2023-03-06T04:39:57.612Z,29.23
2023-03-06T04:42:24.496Z,30.38
2023-03-06T04:44:51.287Z,30.80
2023-03-06T04:47:19.198Z,32.03
2023-03-06T04:49:46.318Z,31.98
2023-03-06T04:52:13.250Z,34.03
2023-03-06T04:54:40.116Z,32.75
2023-03-06T04:57:07.256Z,34.83
2023-03-06T04:59:34.095Z,34.63
2023-03-06T05:02:01.023Z,33.67
2023-03-06T05:04:27.864Z,34.70
2023-03-06T05:06:56.019Z,32.80
2023-03-06T05:09:22.821Z,32.95
2023-03-06T05:11:49.671Z,32.70
2023-03-06T05:14:16.518Z,33.28
2023-03-06T05:16:43.349Z,34.05
2023-03-06T05:19:10.264Z,33.25
2023-03-06T05:21:37.083Z,34.63
2023-03-06T05:24:04.081Z,33.72
2023-03-06T05:26:31.098Z,35.00
2023-03-06T05:28:57.945Z,34.50
2023-03-06T05:31:24.931Z,34.05
2023-03-06T05:33:51.875Z,34.85
2023-03-06T05:36:18.713Z,34.40
2023-03-06T05:38:45.578Z,34.33
2023-03-06T05:41:14.152Z,35.17
2023-03-06T05:43:41.229Z,34.35
2023-03-06T05:46:08.809Z,34.50
2023-03-06T05:48:36.454Z,34.72
2023-03-06T05:51:04.390Z,35.85
2023-03-06T05:53:32.381Z,34.80
2023-03-06T05:56:04.552Z,33.65
2023-03-06T05:58:32.971Z,33.75
2023-03-06T06:01:00.127Z,34.65
2023-03-06T06:03:27.267Z,33.50
2023-03-06T06:05:54.189Z,34.20
2023-03-06T06:08:21.780Z,35.80
2023-03-06T06:10:49.982Z,34.53
2023-03-06T06:13:17.822Z,33.70
2023-03-06T06:15:44.829Z,34.75
2023-03-06T06:18:11.662Z,32.58
2023-03-06T06:20:38.903Z,33.67
2023-03-06T06:23:05.904Z,35.22
2023-03-06T06:25:33.542Z,34.67
2023-03-06T06:28:00.403Z,33.63
2023-03-06T06:30:27.256Z,33.63
2023-03-06T06:32:54.167Z,33.05
2023-03-06T06:35:21.075Z,33.55
2023-03-06T06:37:48.317Z,34.25
2023-03-06T06:40:15.516Z,33.90
2023-03-06T06:42:42.411Z,34.20
2023-03-06T06:45:10.980Z,34.97
2023-03-06T06:47:41.333Z,34.45
2023-03-06T06:50:12.556Z,33.05
2023-03-06T06:52:39.481Z,33.80
2023-03-06T06:55:06.657Z,35.53
2023-03-06T06:57:33.558Z,35.67
2023-03-06T07:00:00.345Z,35.40
2023-03-06T07:02:27.422Z,35.65
2023-03-06T07:05:03.612Z,34.58
2023-03-06T07:07:34.357Z,34.67
2023-03-06T07:10:01.338Z,35.15
2023-03-06T07:12:28.260Z,33.28
2023-03-06T07:14:55.508Z,35.83
2023-03-06T07:17:22.368Z,36.28
2023-03-06T07:19:49.535Z,35.92
2023-03-06T07:22:16.428Z,33.95
2023-03-06T07:24:43.365Z,36.35
2023-03-06T07:27:10.234Z,36.58
2023-03-06T07:29:37.039Z,34.00
2023-03-06T07:32:04.035Z,34.30
2023-03-06T07:34:30.888Z,35.15
2023-03-06T07:36:57.926Z,33.58
2023-03-06T07:39:24.862Z,34.42
2023-03-06T07:41:52.442Z,33.42
2023-03-06T07:44:19.369Z,34.38
2023-03-06T07:46:46.293Z,34.78
2023-03-06T07:49:13.123Z,34.45
2023-03-06T07:51:40.032Z,34.50
2023-03-06T07:54:06.854Z,36.40
2023-03-06T07:56:35.078Z,33.33
2023-03-06T07:59:02.270Z,34.42
2023-03-06T08:01:29.211Z,34.95
2023-03-06T08:03:56.210Z,34.92
2023-03-06T08:06:25.986Z,34.80
2023-03-06T08:08:54.385Z,34.15
2023-03-06T08:11:23.508Z,34.97
2023-03-06T08:13:52.856Z,34.22
2023-03-06T08:16:21.454Z,35.17
2023-03-06T08:18:48.371Z,34.58
2023-03-06T08:21:18.335Z,34.05
2023-03-06T08:23:47.105Z,33.85
2023-03-06T08:26:16.894Z,34.85
2023-03-06T08:28:44.628Z,34.75
2023-03-06T08:31:26.156Z,34.22
2023-03-06T08:33:54.208Z,35.30
2023-03-06T08:36:21.289Z,33.72
2023-03-06T08:38:48.134Z,33.90
2023-03-06T08:41:15.171Z,33.95
2023-03-06T08:43:42.322Z,33.20
2023-03-06T08:46:11.105Z,33.65
2023-03-06T08:48:38.716Z,32.75
2023-03-06T08:51:05.982Z,33.08
2023-03-06T08:53:42.531Z,33.92
2023-03-06T08:56:39.897Z,32.70
2023-03-06T08:59:09.095Z,32.08
2023-03-06T09:01:37.832Z,30.38
2023-03-06T09:04:08.286Z,30.85
2023-03-06T09:06:39.240Z,30.45
2023-03-06T09:09:07.194Z,32.80
2023-03-06T09:11:34.164Z,30.60
2023-03-06T09:14:01.063Z,32.33
2023-03-06T09:16:29.568Z,29.42
2023-03-06T09:18:57.858Z,29.67
2023-03-06T09:21:25.600Z,29.15
2023-03-06T09:23:52.586Z,28.85
2023-03-06T09:26:19.588Z,27.85
2023-03-06T09:28:47.108Z,28.65
2023-03-06T09:31:20.838Z,30.65
2023-03-06T09:33:50.923Z,28.95
2023-03-06T09:36:20.526Z,27.75
2023-03-06T09:38:49.818Z,27.90
2023-03-06T09:41:35.467Z,27.17
2023-03-06T09:44:14.581Z,27.15
2023-03-06T09:47:20.029Z,26.63
2023-03-06T09:50:17.263Z,27.83
2023-03-06T09:53:17.372Z,26.55
2023-03-06T09:55:50.224Z,25.30
2023-03-06T09:58:28.772Z,24.30
2023-03-06T10:01:03.684Z,23.60
2023-03-06T10:04:01.473Z,23.67
2023-03-06T10:06:30.384Z,23.17
2023-03-06T10:09:21.902Z,22.30
2023-03-06T10:11:59.707Z,21.90
2023-03-06T10:14:36.650Z,23.02
2023-03-06T10:17:05.286Z,22.67
2023-03-06T10:19:37.969Z,22.45
2023-03-06T10:22:24.205Z,21.88
2023-03-06T10:24:54.164Z,21.85
2023-03-06T10:27:36.579Z,20.92
2023-03-06T10:30:27.973Z,22.60
2023-03-06T10:33:08.993Z,21.15
2023-03-06T10:35:49.667Z,21.85
2023-03-06T10:38:27.682Z,21.55
2023-03-06T10:41:07.078Z,20.27
2023-03-06T10:43:36.486Z,21.52
2023-03-06T10:46:04.151Z,22.52
2023-03-06T10:48:35.865Z,19.90
2023-03-06T10:51:19.985Z,20.83
2023-03-06T10:54:12.685Z,19.27
2023-03-06T10:56:44.390Z,20.80
2023-03-06T10:59:17.151Z,20.15
2023-03-06T11:01:47.032Z,20.80
2023-03-06T11:04:34.710Z,20.33
2023-03-06T11:07:15.864Z,19.70
2023-03-06T11:09:47.722Z,17.75
2023-03-06T11:12:27.195Z,17.05
2023-03-06T11:15:15.203Z,16.27
2023-03-06T11:18:01.388Z,16.70
2023-03-06T11:20:51.144Z,16.30
2023-03-06T11:23:30.501Z,16.27
2023-03-06T11:26:02.903Z,14.52
2023-03-06T11:29:08.766Z,15.75
2023-03-06T11:31:42.014Z,14.93
2023-03-06T11:34:11.839Z,15.20
2023-03-06T11:36:57.751Z,15.60
2023-03-06T11:42:13.085Z,18.55
2023-03-06T11:44:52.891Z,18.60
2023-03-06T11:47:31.917Z,18.75
2023-03-06T11:50:22.982Z,19.08
2023-03-06T11:53:02.802Z,19.38
2023-03-06T11:55:40.866Z,19.65
2023-03-06T11:58:32.358Z,18.60
2023-03-06T12:01:32.692Z,18.27
2023-03-06T12:04:36.831Z,19.55
2023-03-06T12:07:10.771Z,21.10
2023-03-06T12:09:54.462Z,21.65
2023-03-06T12:12:24.500Z,22.65
2023-03-06T12:15:10.193Z,22.38
2023-03-06T12:18:07.322Z,20.63
2023-03-06T12:20:43.361Z,20.25
2023-03-06T12:23:42.453Z,20.40
2023-03-06T12:26:37.407Z,21.98
2023-03-06T12:29:22.954Z,23.30
2023-03-06T12:32:16.903Z,20.50
2023-03-06T12:35:17.835Z,16.73
2023-03-06T12:38:17.300Z,16.42
2023-03-06T12:41:02.155Z,14.82
2023-03-06T12:43:46.428Z,13.65
2023-03-06T12:46:16.983Z,14.15
2023-03-06T12:48:48.894Z,14.13
2023-03-06T12:51:19.731Z,14.30
2023-03-06T12:53:47.978Z,14.05
2023-03-06T12:56:17.072Z,13.13
2023-03-06T12:58:49.331Z,13.85
2023-03-06T13:01:37.545Z,12.68
2023-03-06T13:04:42.769Z,14.18
2023-03-06T13:08:06.604Z,13.05
2023-03-06T13:10:35.774Z,12.73
2023-03-06T13:13:41.310Z,14.57
2023-03-06T13:16:31.850Z,13.82
2023-03-06T13:19:16.775Z,13.80
2023-03-06T13:21:55.736Z,14.87
2023-03-06T13:24:28.843Z,14.70
2023-03-06T13:26:57.195Z,14.38
2023-03-06T13:29:36.238Z,15.15
2023-03-06T13:32:03.288Z,14.65
2023-03-06T13:34:39.240Z,16.65
2023-03-06T13:37:23.211Z,15.70
2023-03-06T13:39:55.872Z,14.63
2023-03-06T13:42:36.252Z,14.27
2023-03-06T13:45:08.016Z,14.63
2023-03-06T13:48:21.053Z,15.23
2023-03-06T13:50:48.724Z,15.27
2023-03-06T13:53:37.099Z,14.88
2023-03-06T13:56:30.436Z,14.80
2023-03-06T13:59:03.147Z,16.33
2023-03-06T14:01:48.698Z,16.48
2023-03-06T14:04:46.357Z,16.20
2023-03-06T14:07:24.369Z,15.95
2023-03-06T14:10:01.959Z,16.65
2023-03-06T14:12:36.323Z,16.73
2023-03-06T14:15:12.824Z,17.85
2023-03-06T14:17:58.061Z,17.35
2023-03-06T14:20:38.934Z,17.55
2023-03-06T14:23:21.049Z,16.35
2023-03-06T14:26:15.605Z,15.77
2023-03-06T14:28:44.843Z,16.48
2023-03-06T14:31:22.459Z,17.15
2023-03-06T14:34:05.330Z,16.40
2023-03-06T14:36:35.197Z,17.13
2023-03-06T14:39:08.809Z,17.40
2023-03-06T14:41:36.690Z,20.60
2023-03-06T14:44:17.769Z,17.70
2023-03-06T14:46:46.537Z,15.65
2023-03-06T14:49:18.400Z,14.98
2023-03-06T14:52:02.247Z,14.98
2023-03-06T14:54:32.044Z,15.18
2023-03-06T14:57:06.069Z,15.15
2023-03-06T14:59:43.760Z,15.25
2023-03-06T15:02:21.603Z,15.27
2023-03-06T15:04:52.556Z,15.45
2023-03-06T15:07:24.383Z,15.35
2023-03-06T15:09:53.415Z,16.02
2023-03-06T15:12:20.201Z,14.65
2023-03-06T15:14:58.928Z,14.43
2023-03-06T15:17:32.249Z,15.65
2023-03-06T15:20:00.661Z,15.05
2023-03-06T15:22:41.490Z,14.57
2023-03-06T15:25:22.253Z,14.00
2023-03-06T15:27:55.663Z,14.82
2023-03-06T15:30:27.226Z,14.57
2023-03-06T15:33:24.865Z,13.63
2023-03-06T15:36:02.025Z,13.10
2023-03-06T15:38:36.318Z,13.00
2023-03-06T15:41:05.114Z,12.20
2023-03-06T15:43:36.935Z,11.88
2023-03-06T15:46:06.442Z,13.50
2023-03-06T15:48:36.705Z,13.10
2023-03-06T15:51:03.884Z,12.57
2023-03-06T15:53:31.035Z,12.75
2023-03-06T15:55:59.222Z,12.88
2023-03-06T15:58:29.195Z,13.35
2023-03-06T16:00:56.173Z,13.10
2023-03-06T16:03:23.104Z,13.70
2023-03-06T16:05:49.957Z,13.65
2023-03-06T16:08:16.859Z,12.90
2023-03-06T16:10:45.168Z,11.32
2023-03-06T16:13:17.374Z,11.95
2023-03-06T16:15:50.163Z,12.00
2023-03-06T16:18:17.650Z,12.23
2023-03-06T16:20:45.236Z,12.27
2023-03-06T16:23:12.154Z,11.25
2023-03-06T16:25:41.274Z,11.32
2023-03-06T16:28:16.563Z,11.02
2023-03-06T16:30:44.754Z,12.03
2023-03-06T16:33:12.937Z,12.35
2023-03-06T16:35:41.519Z,11.57
2023-03-06T16:38:10.166Z,10.77
2023-03-06T16:40:41.189Z,10.95
2023-03-06T16:43:09.504Z,12.48
2023-03-06T16:45:41.637Z,11.60
2023-03-06T16:48:14.765Z,14.05
2023-03-06T16:50:41.635Z,12.13
2023-03-06T16:53:08.546Z,12.55
2023-03-06T16:55:35.420Z,12.52
2023-03-06T16:58:02.254Z,12.30
2023-03-06T17:00:31.959Z,12.38
2023-03-06T17:02:59.694Z,13.15
2023-03-06T17:05:26.622Z,12.32
2023-03-06T17:07:53.674Z,12.88
2023-03-06T17:10:22.835Z,12.38
2023-03-06T17:12:50.244Z,13.05
2023-03-06T17:15:17.182Z,13.13
2023-03-06T17:17:44.161Z,13.32
2023-03-06T17:20:11.980Z,13.70
2023-03-06T17:22:39.135Z,13.35
2023-03-06T17:25:08.039Z,13.07
2023-03-06T17:27:35.857Z,13.35
2023-03-06T17:30:03.455Z,13.52
2023-03-06T17:32:30.633Z,14.27
2023-03-06T17:34:57.572Z,13.38
2023-03-06T17:37:24.413Z,14.52
2023-03-06T17:39:51.356Z,15.07
2023-03-06T17:42:18.283Z,14.95
2023-03-06T17:44:45.118Z,14.27
2023-03-06T17:47:12.780Z,15.23
2023-03-06T17:49:39.651Z,14.57
2023-03-06T17:52:06.741Z,15.02
2023-03-06T17:54:33.637Z,14.98
2023-03-06T17:57:03.462Z,14.98
2023-03-06T17:59:33.942Z,15.85
2023-03-06T18:02:02.046Z,15.32
2023-03-06T18:04:29.209Z,15.70
2023-03-06T18:06:57.161Z,15.40
2023-03-06T18:09:25.009Z,14.20
2023-03-06T18:11:51.904Z,14.52
2023-03-06T18:14:18.785Z,14.20
2023-03-06T18:16:45.675Z,13.13
2023-03-06T18:19:12.933Z,15.32
2023-03-06T18:21:40.052Z,14.25
2023-03-06T18:24:07.623Z,14.48
2023-03-06T18:26:34.561Z,15.00
2023-03-06T18:29:06.457Z,15.73
2023-03-06T18:31:36.705Z,13.73
2023-03-06T18:34:10.699Z,15.48
2023-03-06T18:36:38.463Z,14.88
2023-03-06T18:39:09.833Z,14.07
2023-03-06T18:41:37.419Z,14.40
2023-03-06T18:44:05.422Z,13.75
2023-03-06T18:46:36.308Z,13.13
2023-03-06T18:49:03.666Z,12.43
2023-03-06T18:51:31.235Z,12.68
2023-03-06T18:53:59.619Z,13.20
2023-03-06T18:56:26.980Z,13.32
2023-03-06T18:58:53.975Z,13.52
2023-03-06T19:01:22.614Z,13.25
2023-03-06T19:03:49.668Z,13.88
2023-03-06T19:06:17.656Z,13.82
2023-03-06T19:08:45.217Z,13.73
2023-03-06T19:11:15.508Z,14.18
2023-03-06T19:13:43.418Z,14.30
2023-03-06T19:16:17.752Z,13.50
2023-03-06T19:18:44.771Z,15.30
2023-03-06T19:21:14.401Z,13.90
2023-03-06T19:23:41.753Z,14.98
2023-03-06T19:26:09.058Z,14.70
2023-03-06T19:28:38.528Z,13.98
2023-03-06T19:31:13.419Z,14.43
2023-03-06T19:33:41.989Z,13.90
2023-03-06T19:36:11.322Z,15.52
2023-03-06T19:38:38.337Z,14.93
2023-03-06T19:41:05.398Z,14.13
2023-03-06T19:43:33.264Z,13.80
2023-03-06T19:46:01.313Z,14.23
2023-03-06T19:48:28.241Z,13.18
2023-03-06T19:50:55.318Z,14.45
2023-03-06T19:53:23.276Z,12.65
2023-03-06T19:55:50.167Z,13.60
2023-03-06T19:58:17.149Z,13.10
2023-03-06T20:00:44.116Z,12.65
2023-03-06T20:03:11.254Z,11.68
2023-03-06T20:05:46.638Z,12.50
2023-03-06T20:08:15.048Z,12.32
2023-03-06T20:10:42.005Z,12.05
2023-03-06T20:13:09.004Z,12.32
2023-03-06T20:15:36.930Z,11.95
2023-03-06T20:18:04.245Z,12.48
2023-03-06T20:20:31.231Z,12.07
2023-03-06T20:23:02.588Z,12.32
2023-03-06T20:25:29.641Z,11.82
2023-03-06T20:27:56.601Z,11.52
2023-03-06T20:30:24.239Z,11.57
2023-03-06T20:32:52.650Z,10.43
2023-03-06T20:35:20.460Z,10.68
2023-03-06T20:37:47.434Z,9.55
2023-03-06T20:40:14.641Z,11.43
2023-03-06T20:42:41.914Z,11.00
2023-03-06T20:45:09.695Z,10.32
2023-03-06T20:47:36.653Z,11.10
2023-03-06T20:50:03.731Z,9.63
2023-03-06T20:52:30.947Z,9.48
2023-03-06T20:54:57.923Z,8.75
2023-03-06T20:57:25.253Z,8.35
2023-03-06T20:59:52.215Z,8.10
2023-03-06T21:02:19.060Z,8.85
2023-03-06T21:04:46.326Z,7.95
2023-03-06T21:07:13.570Z,8.93
2023-03-06T21:09:41.675Z,8.98
2023-03-06T21:12:09.145Z,8.40
2023-03-06T21:14:35.916Z,8.70
2023-03-06T21:17:03.512Z,8.52
2023-03-06T21:19:30.335Z,8.07
2023-03-06T21:21:57.201Z,7.70
2023-03-06T21:24:24.001Z,6.75
2023-03-06T21:26:52.041Z,7.55
2023-03-06T21:29:18.926Z,6.35
2023-03-06T21:31:46.010Z,7.30
2023-03-06T21:34:13.151Z,8.27
2023-03-06T21:36:40.047Z,7.63
2023-03-06T21:39:07.009Z,6.80
2023-03-06T21:41:33.992Z,7.32
2023-03-06T21:44:03.466Z,7.13
2023-03-06T21:46:30.702Z,6.97
2023-03-06T21:48:58.539Z,8.15
2023-03-06T21:51:26.721Z,7.65
2023-03-06T21:53:54.678Z,7.55
2023-03-06T21:56:25.071Z,7.55
2023-03-06T21:58:52.689Z,7.45
2023-03-06T22:01:22.796Z,7.13
2023-03-06T22:03:50.892Z,7.38
2023-03-06T22:06:23.607Z,8.13
2023-03-06T22:08:50.672Z,8.52
2023-03-06T22:11:20.517Z,9.55
2023-03-06T22:13:50.620Z,9.15
2023-03-06T22:16:18.327Z,8.77
2023-03-06T22:18:50.333Z,8.18
2023-03-06T22:21:19.087Z,8.23
2023-03-06T22:23:50.166Z,8.27
2023-03-06T22:26:17.478Z,7.00
2023-03-06T22:28:44.937Z,8.13
2023-03-06T22:31:20.461Z,7.15
2023-03-06T22:33:49.936Z,7.65
2023-03-06T22:36:16.933Z,7.07
2023-03-06T22:38:45.303Z,8.07
2023-03-06T22:41:13.823Z,7.60
2023-03-06T22:43:40.893Z,7.25
2023-03-06T22:46:11.093Z,7.80
2023-03-06T22:48:37.911Z,7.88
2023-03-06T22:51:10.268Z,7.63
2023-03-06T22:53:37.453Z,8.02
2023-03-06T22:56:09.811Z,7.85
2023-03-06T22:58:37.540Z,7.60
2023-03-06T23:01:09.892Z,7.35
2023-03-06T23:03:38.314Z,7.60
2023-03-06T23:06:26.143Z,6.82
2023-03-06T23:08:56.798Z,7.50
2023-03-06T23:11:24.619Z,7.45
2023-03-06T23:13:51.537Z,7.35
2023-03-06T23:16:18.452Z,7.55
2023-03-06T23:18:45.288Z,8.07
2023-03-06T23:21:15.265Z,7.82
2023-03-06T23:23:44.190Z,7.97
2023-03-06T23:26:13.983Z,8.77
2023-03-06T23:28:42.901Z,9.23
2023-03-06T23:31:15.854Z,8.88
2023-03-06T23:33:42.925Z,8.35
2023-03-06T23:36:12.331Z,9.60
2023-03-06T23:38:39.751Z,8.73
2023-03-06T23:41:10.305Z,8.88
2023-03-06T23:43:37.217Z,8.80
2023-03-06T23:46:04.781Z,9.43
2023-03-06T23:48:31.619Z,8.48
2023-03-06T23:50:58.502Z,8.70
2023-03-06T23:53:25.773Z,9.35
2023-03-06T23:55:54.039Z,8.35
2023-03-06T23:58:20.880Z,9.30
